createdAt,value
2018-11-13T00:00:30.892Z,100467.30
2018-11-13T00:01:05.861Z,100479.44
2018-11-13T00:01:40.770Z,100476.72
2018-11-13T00:02:15.843Z,100482.21
2018-11-13T00:02:51.572Z,100487.09
2018-11-13T00:03:26.551Z,100479.03
2018-11-13T00:04:01.527Z,100483.17
2018-11-13T00:04:36.457Z,100479.66
2018-11-13T00:05:11.755Z,100485.38
2018-11-13T00:05:46.784Z,100476.05
2018-11-13T00:06:21.701Z,100482.91
2018-11-13T00:06:56.679Z,100481.12
2018-11-13T00:07:31.640Z,100483.66
2018-11-13T00:08:06.647Z,100469.73
2018-11-13T00:08:41.581Z,100477.15
2018-11-13T00:09:16.521Z,100477.34
2018-11-13T00:09:51.466Z,100468.89
2018-11-13T00:10:26.459Z,100469.09
2018-11-13T00:11:01.581Z,100469.48
2018-11-13T00:11:36.588Z,100472.47
2018-11-13T00:12:11.776Z,100468.41
2018-11-13T00:12:46.716Z,100470.30
2018-11-13T00:13:21.622Z,100470.30
2018-11-13T00:13:56.545Z,100471.37
2018-11-13T00:14:31.456Z,100474.00
2018-11-13T00:15:06.666Z,100470.00
2018-11-13T00:15:41.586Z,100470.09
2018-11-13T00:16:16.532Z,100468.92
2018-11-13T00:16:51.450Z,100471.98
2018-11-13T00:17:26.505Z,100466.16
2018-11-13T00:18:01.428Z,100468.05
2018-11-13T00:18:36.495Z,100469.35
2018-11-13T00:19:11.523Z,100467.27
2018-11-13T00:19:46.443Z,100463.47
2018-11-13T00:20:21.413Z,100469.42
2018-11-13T00:20:56.345Z,100468.86
2018-11-13T00:21:31.201Z,100457.81
2018-11-13T00:22:06.192Z,100460.60
2018-11-13T00:22:41.281Z,100458.75
2018-11-13T00:23:16.545Z,100457.65
2018-11-13T00:23:51.507Z,100457.58
2018-11-13T00:24:27.881Z,100456.22
2018-11-13T00:25:02.922Z,100453.36
2018-11-13T00:25:37.860Z,100452.05
2018-11-13T00:26:12.810Z,100459.47
2018-11-13T00:26:48.108Z,100460.47
2018-11-13T00:27:22.996Z,100452.80
2018-11-13T00:27:58.099Z,100454.56
2018-11-13T00:28:33.257Z,100456.31
2018-11-13T00:29:08.133Z,100449.06
2018-11-13T00:29:43.038Z,100450.59
2018-11-13T00:30:19.658Z,100449.62
2018-11-13T00:30:54.563Z,100444.09
2018-11-13T00:31:29.672Z,100440.71
2018-11-13T00:32:04.904Z,100442.44
2018-11-13T00:32:40.154Z,100438.38
2018-11-13T00:33:15.161Z,100445.72
2018-11-13T00:33:50.054Z,100445.75
2018-11-13T00:34:24.929Z,100451.14
2018-11-13T00:34:59.803Z,100452.61
2018-11-13T00:35:34.694Z,100451.21
2018-11-13T00:36:09.597Z,100448.77
2018-11-13T00:36:44.741Z,100445.81
2018-11-13T00:37:19.629Z,100450.56
2018-11-13T00:37:54.573Z,100448.92
2018-11-13T00:38:29.517Z,100451.72
2018-11-13T00:39:06.871Z,100448.19
2018-11-13T00:39:41.953Z,100456.96
2018-11-13T00:40:17.666Z,100456.34
2018-11-13T00:40:52.237Z,100458.39
2018-11-13T00:41:27.157Z,100454.83
2018-11-13T00:42:02.152Z,100462.43
2018-11-13T00:42:37.044Z,100467.68
2018-11-13T00:43:11.993Z,100467.39
2018-11-13T00:43:46.932Z,100471.39
2018-11-13T00:44:21.826Z,100470.05
2018-11-13T00:44:56.716Z,100471.52
2018-11-13T00:45:31.779Z,100471.78
2018-11-13T00:46:06.919Z,100464.57
2018-11-13T00:46:41.903Z,100459.56
2018-11-13T00:47:16.905Z,100457.74
2018-11-13T00:47:51.796Z,100450.00
2018-11-13T00:48:26.992Z,100449.35
2018-11-13T00:49:02.180Z,100453.19
2018-11-13T00:49:36.973Z,100453.41
2018-11-13T00:50:14.544Z,100459.37
2018-11-13T00:50:49.448Z,100454.46
2018-11-13T00:51:24.336Z,100463.47
2018-11-13T00:51:59.246Z,100464.89
2018-11-13T00:52:34.191Z,100466.39
2018-11-13T00:53:15.709Z,100471.56
2018-11-13T00:54:31.767Z,100467.47
2018-11-13T00:55:07.183Z,100472.27
2018-11-13T00:55:42.118Z,100473.19
2018-11-13T00:56:17.461Z,100472.18
2018-11-13T00:56:52.356Z,100463.83
2018-11-13T00:57:27.452Z,100467.05
2018-11-13T00:58:02.339Z,100476.63
2018-11-13T00:58:37.235Z,100468.67
2018-11-13T00:59:12.535Z,100469.91
2018-11-13T00:59:47.548Z,100468.31
2018-11-13T01:00:22.496Z,100468.50
2018-11-13T01:00:57.637Z,100476.08
2018-11-13T01:01:32.555Z,100468.63
2018-11-13T01:02:08.230Z,100466.38
2018-11-13T01:02:43.597Z,100465.21
2018-11-13T01:03:18.570Z,100462.55
2018-11-13T01:03:53.432Z,100466.64
2018-11-13T01:04:28.348Z,100459.78
2018-11-13T01:05:03.358Z,100461.94
2018-11-13T01:05:38.442Z,100461.25
2018-11-13T01:06:13.904Z,100469.83
2018-11-13T01:06:48.894Z,100470.97
2018-11-13T01:07:23.898Z,100475.39
2018-11-13T01:07:58.791Z,100480.30
2018-11-13T01:08:33.725Z,100483.91
2018-11-13T01:09:09.358Z,100483.58
2018-11-13T01:09:44.297Z,100492.09
2018-11-13T01:10:20.285Z,100499.67
2018-11-13T01:10:55.177Z,100500.68
2018-11-13T01:11:30.072Z,100507.53
2018-11-13T01:12:05.352Z,100503.98
2018-11-13T01:12:40.743Z,100513.24
2018-11-13T01:13:15.150Z,100511.14
2018-11-13T01:13:50.051Z,100509.56
2018-11-13T01:14:24.915Z,100504.58
2018-11-13T01:14:59.876Z,100503.86
2018-11-13T01:15:34.897Z,100497.81
2018-11-13T01:16:09.864Z,100511.56
2018-11-13T01:16:44.974Z,100506.13
2018-11-13T01:17:19.959Z,100506.26
2018-11-13T01:17:55.059Z,100503.98
2018-11-13T01:18:30.335Z,100506.59
2018-11-13T01:19:05.597Z,100503.70
2018-11-13T01:19:40.811Z,100506.59
2018-11-13T01:20:16.581Z,100512.19
2018-11-13T01:20:51.485Z,100508.80
2018-11-13T01:21:26.408Z,100509.70
2018-11-13T01:22:01.348Z,100512.23
2018-11-13T01:22:36.617Z,100510.22
2018-11-13T01:23:11.450Z,100512.97
2018-11-13T01:23:46.608Z,100507.44
2018-11-13T01:24:21.721Z,100509.92
2018-11-13T01:24:56.624Z,100513.75
2018-11-13T01:25:31.536Z,100508.28
2018-11-13T01:26:06.800Z,100502.81
2018-11-13T01:26:41.688Z,100507.72
2018-11-13T01:27:16.620Z,100507.83
2018-11-13T01:27:51.586Z,100505.00
2018-11-13T01:28:26.513Z,100510.25
2018-11-13T01:29:01.424Z,100513.36
2018-11-13T01:29:36.512Z,100510.38
2018-11-13T01:30:13.001Z,100509.59
2018-11-13T01:30:47.981Z,100507.27
2018-11-13T01:31:22.868Z,100516.69
2018-11-13T01:31:57.796Z,100505.63
2018-11-13T01:32:32.721Z,100506.87
2018-11-13T01:33:07.678Z,100510.31
2018-11-13T01:33:42.600Z,100507.70
2018-11-13T01:34:17.539Z,100511.67
2018-11-13T01:34:52.434Z,100503.48
2018-11-13T01:35:27.333Z,100506.23
2018-11-13T01:36:02.256Z,100506.98
2018-11-13T01:36:36.600Z,100507.78
2018-11-13T01:37:11.578Z,100510.65
2018-11-13T01:37:46.821Z,100513.36
2018-11-13T01:38:21.751Z,100520.83
2018-11-13T01:38:56.673Z,100520.25
2018-11-13T01:39:31.628Z,100522.86
2018-11-13T01:40:13.141Z,100513.94
2018-11-13T01:40:48.105Z,100527.99
2018-11-13T01:41:23.002Z,100530.02
2018-11-13T01:41:57.920Z,100537.75
2018-11-13T01:42:32.851Z,100542.09
2018-11-13T01:43:07.772Z,100543.06
2018-11-13T01:43:42.701Z,100537.98
2018-11-13T01:44:17.685Z,100535.45
2018-11-13T01:44:52.644Z,100539.02
2018-11-13T01:45:27.560Z,100524.78
2018-11-13T01:46:02.488Z,100524.87
2018-11-13T01:46:37.441Z,100516.41
2018-11-13T01:47:12.441Z,100515.23
2018-11-13T01:47:47.745Z,100507.66
2018-11-13T01:48:22.649Z,100513.06
2018-11-13T01:48:57.608Z,100518.89
2018-11-13T01:49:32.570Z,100519.63
2018-11-13T01:50:09.089Z,100515.99
2018-11-13T01:50:44.078Z,100512.73
2018-11-13T01:51:19.039Z,100506.36
2018-11-13T01:51:54.199Z,100508.11
2018-11-13T01:52:29.136Z,100506.75
2018-11-13T01:53:04.168Z,100508.05
2018-11-13T01:53:39.106Z,100499.17
2018-11-13T01:54:14.264Z,100494.61
2018-11-13T01:54:49.416Z,100500.95
2018-11-13T01:55:23.759Z,100498.89
2018-11-13T01:55:58.676Z,100499.80
2018-11-13T01:56:33.602Z,100500.83
2018-11-13T01:57:08.723Z,100498.23
2018-11-13T01:57:44.094Z,100500.53
2018-11-13T01:58:19.030Z,100503.36
2018-11-13T01:58:53.983Z,100504.16
2018-11-13T01:59:28.331Z,100490.89
2018-11-13T02:00:03.834Z,100498.74
2018-11-13T02:00:38.800Z,100498.23
2018-11-13T02:01:13.976Z,100504.78
2018-11-13T02:01:48.932Z,100498.56
2018-11-13T02:02:23.940Z,100496.23
2018-11-13T02:02:58.358Z,100500.88
2018-11-13T02:03:33.336Z,100502.06
2018-11-13T02:04:08.357Z,100487.26
2018-11-13T02:04:43.331Z,100503.09
2018-11-13T02:05:20.830Z,100500.66
2018-11-13T02:05:55.779Z,100496.08
2018-11-13T02:06:31.127Z,100478.28
2018-11-13T02:07:06.517Z,100507.95
2018-11-13T02:07:41.623Z,100500.03
2018-11-13T02:08:16.588Z,100510.44
2018-11-13T02:08:51.662Z,100510.86
2018-11-13T02:09:26.605Z,100503.25
2018-11-13T02:10:01.552Z,100516.17
2018-11-13T02:10:36.520Z,100515.91
2018-11-13T02:11:11.496Z,100516.62
2018-11-13T02:11:46.643Z,100507.93
2018-11-13T02:12:21.612Z,100513.52
2018-11-13T02:12:56.591Z,100509.92
2018-11-13T02:13:31.005Z,100513.97
2018-11-13T02:14:06.028Z,100505.72
2018-11-13T02:14:41.073Z,100510.25
2018-11-13T02:15:16.339Z,100508.11
2018-11-13T02:15:51.300Z,100501.83
2018-11-13T02:16:25.659Z,100504.09
2018-11-13T02:17:00.620Z,100510.20
2018-11-13T02:17:35.728Z,100508.11
2018-11-13T02:18:10.670Z,100512.19
2018-11-13T02:18:45.712Z,100504.66
2018-11-13T02:19:20.673Z,100509.73
2018-11-13T02:19:55.031Z,100509.80
2018-11-13T02:20:29.971Z,100511.04
2018-11-13T02:21:04.936Z,100500.34
2018-11-13T02:21:39.856Z,100512.55
2018-11-13T02:22:14.917Z,100510.80
2018-11-13T02:22:50.239Z,100510.86
2018-11-13T02:23:25.187Z,100515.00
2018-11-13T02:24:00.177Z,100509.23
2018-11-13T02:24:35.122Z,100512.22
2018-11-13T02:25:12.917Z,100521.25
2018-11-13T02:25:47.940Z,100521.70
2018-11-13T02:26:22.313Z,100532.09
2018-11-13T02:26:57.311Z,100530.27
2018-11-13T02:27:31.721Z,100529.88
2018-11-13T02:28:07.042Z,100530.27
2018-11-13T02:28:41.982Z,100542.16
2018-11-13T02:29:17.046Z,100543.52
2018-11-13T02:29:51.998Z,100544.76
2018-11-13T02:30:26.357Z,100548.56
2018-11-13T02:31:01.441Z,100544.76
2018-11-13T02:31:36.381Z,100541.00
2018-11-13T02:32:11.360Z,100535.92
2018-11-13T02:32:46.948Z,100539.75
2018-11-13T02:33:21.904Z,100544.55
2018-11-13T02:33:56.848Z,100544.10
2018-11-13T02:34:31.236Z,100541.05
2018-11-13T02:35:06.743Z,100541.63
2018-11-13T02:35:41.237Z,100545.34
2018-11-13T02:36:16.303Z,100548.78
2018-11-13T02:36:51.253Z,100548.84
2018-11-13T02:37:26.216Z,100545.85
2018-11-13T02:38:01.187Z,100552.91
2018-11-13T02:38:35.577Z,100548.13
2018-11-13T02:39:10.892Z,100549.37
2018-11-13T02:39:45.381Z,100550.22
2018-11-13T02:40:19.914Z,100551.06
2018-11-13T02:40:54.279Z,100552.94
2018-11-13T02:41:28.640Z,100550.13
2018-11-13T02:42:03.126Z,100536.16
2018-11-13T02:42:38.581Z,100549.48
2018-11-13T02:43:13.016Z,100540.66
2018-11-13T02:43:47.406Z,100544.95
2018-11-13T02:44:22.382Z,100547.16
2018-11-13T02:44:57.368Z,100547.27
2018-11-13T02:45:32.304Z,100550.54
2018-11-13T02:46:06.701Z,100553.44
2018-11-13T02:46:41.668Z,100551.44
2018-11-13T02:47:16.721Z,100551.61
2018-11-13T02:47:51.458Z,100561.55
2018-11-13T02:48:26.462Z,100563.45
2018-11-13T02:49:00.869Z,100555.34
2018-11-13T02:49:35.873Z,100561.04
2018-11-13T02:50:12.109Z,100559.54
2018-11-13T02:50:47.083Z,100563.98
2018-11-13T02:51:22.037Z,100564.23
2018-11-13T02:51:56.583Z,100566.89
2018-11-13T02:52:31.523Z,100562.94
2018-11-13T02:53:06.503Z,100568.38
2018-11-13T02:53:40.860Z,100571.22
2018-11-13T02:54:15.908Z,100568.06
2018-11-13T02:54:50.800Z,100576.25
2018-11-13T02:55:25.788Z,100582.16
2018-11-13T02:56:00.772Z,100579.73
2018-11-13T02:56:35.644Z,100582.67
2018-11-13T02:57:10.644Z,100588.66
2018-11-13T02:57:45.756Z,100588.66
2018-11-13T02:58:20.691Z,100593.05
2018-11-13T02:58:55.095Z,100590.80
2018-11-13T02:59:30.144Z,100582.30
2018-11-13T03:00:07.648Z,100589.41
2018-11-13T03:00:42.634Z,100590.57
2018-11-13T03:01:17.637Z,100589.05
2018-11-13T03:01:52.682Z,100589.67
2018-11-13T03:02:27.594Z,100597.66
2018-11-13T03:03:02.550Z,100593.34
2018-11-13T03:03:36.916Z,100592.94
2018-11-13T03:04:11.285Z,100596.59
2018-11-13T03:04:46.252Z,100588.20
2018-11-13T03:05:22.133Z,100594.30
2018-11-13T03:05:57.136Z,100591.30
2018-11-13T03:06:32.132Z,100589.67
2018-11-13T03:07:07.149Z,100590.48
2018-11-13T03:07:41.952Z,100584.36
2018-11-13T03:08:16.983Z,100585.28
2018-11-13T03:08:51.977Z,100584.17
2018-11-13T03:09:26.939Z,100586.44
2018-11-13T03:10:01.887Z,100583.59
2018-11-13T03:10:36.816Z,100584.95
2018-11-13T03:11:11.749Z,100580.31
2018-11-13T03:11:46.708Z,100579.48
2018-11-13T03:12:21.620Z,100588.92
2018-11-13T03:12:56.557Z,100584.09
2018-11-13T03:13:31.622Z,100591.33
2018-11-13T03:14:06.742Z,100596.84
2018-11-13T03:14:41.726Z,100601.30
2018-11-13T03:15:18.141Z,100603.84
2018-11-13T03:15:53.149Z,100611.58
2018-11-13T03:16:28.118Z,100609.48
2018-11-13T03:17:03.133Z,100608.39
2018-11-13T03:17:38.335Z,100610.50
2018-11-13T03:18:13.340Z,100595.80
2018-11-13T03:18:48.307Z,100602.80
2018-11-13T03:19:23.272Z,100612.59
2018-11-13T03:19:58.199Z,100615.27
2018-11-13T03:20:33.147Z,100605.64
2018-11-13T03:21:08.066Z,100607.20
2018-11-13T03:21:43.141Z,100616.03
2018-11-13T03:22:18.313Z,100619.28
2018-11-13T03:22:53.344Z,100608.89
2018-11-13T03:23:28.290Z,100614.99
2018-11-13T03:24:03.316Z,100615.07
2018-11-13T03:24:38.280Z,100612.88
2018-11-13T03:25:16.279Z,100612.16
2018-11-13T03:25:51.255Z,100612.08
2018-11-13T03:26:26.207Z,100608.05
2018-11-13T03:27:01.204Z,100609.93
2018-11-13T03:27:36.152Z,100612.14
2018-11-13T03:28:11.140Z,100608.12
2018-11-13T03:28:46.083Z,100606.75
2018-11-13T03:29:21.212Z,100610.22
2018-11-13T03:29:56.166Z,100611.69
2018-11-13T03:30:31.078Z,100573.55
2018-11-13T03:31:06.458Z,100615.47
2018-11-13T03:31:41.726Z,100614.28
2018-11-13T03:32:16.828Z,100618.01
2018-11-13T03:32:52.249Z,100614.37
2018-11-13T03:33:27.388Z,100610.92
2018-11-13T03:34:02.348Z,100624.07
2018-11-13T03:34:37.424Z,100620.17
2018-11-13T03:35:13.090Z,100619.86
2018-11-13T03:35:48.103Z,100623.85
2018-11-13T03:36:23.195Z,100626.61
2018-11-13T03:36:58.119Z,100584.30
2018-11-13T03:37:33.082Z,100627.06
2018-11-13T03:38:08.097Z,100627.06
2018-11-13T03:38:43.439Z,100622.91
2018-11-13T03:39:18.486Z,100625.11
2018-11-13T03:39:53.459Z,100622.63
2018-11-13T03:40:28.403Z,100626.07
2018-11-13T03:41:03.388Z,100624.61
2018-11-13T03:41:38.647Z,100622.23
2018-11-13T03:42:13.624Z,100624.12
2018-11-13T03:42:53.919Z,100616.59
2018-11-13T03:43:28.860Z,100626.07
2018-11-13T03:44:03.825Z,100629.05
2018-11-13T03:44:38.879Z,100624.30
2018-11-13T03:45:14.656Z,100626.90
2018-11-13T03:45:49.594Z,100627.60
2018-11-13T03:46:24.511Z,100614.64
2018-11-13T03:46:59.472Z,100623.42
2018-11-13T03:47:34.426Z,100626.61
2018-11-13T03:48:09.366Z,100627.67
2018-11-13T03:48:44.296Z,100631.56
2018-11-13T03:49:19.218Z,100621.42
2018-11-13T03:49:54.158Z,100628.81
2018-11-13T03:50:29.064Z,100624.66
2018-11-13T03:51:03.976Z,100628.11
2018-11-13T03:51:38.895Z,100626.02
2018-11-13T03:52:13.222Z,100629.45
2018-11-13T03:52:48.695Z,100614.68
2018-11-13T03:53:23.635Z,100624.13
2018-11-13T03:53:58.012Z,100623.97
2018-11-13T03:54:32.392Z,100621.83
2018-11-13T03:55:08.488Z,100621.83
2018-11-13T03:55:43.503Z,100616.80
2018-11-13T03:56:18.516Z,100616.03
2018-11-13T03:56:53.415Z,100617.19
2018-11-13T03:57:28.487Z,100614.64
2018-11-13T03:58:03.780Z,100615.73
2018-11-13T03:58:38.713Z,100614.54
2018-11-13T03:59:13.645Z,100616.74
2018-11-13T03:59:48.705Z,100625.52
2018-11-13T04:00:24.334Z,100620.56
2018-11-13T04:00:59.330Z,100620.03
2018-11-13T04:01:34.281Z,100626.21
2018-11-13T04:02:09.168Z,100633.20
2018-11-13T04:02:44.158Z,100625.27
2018-11-13T04:03:19.064Z,100631.11
2018-11-13T04:03:53.980Z,100636.10
2018-11-13T04:04:28.911Z,100637.91
2018-11-13T04:05:03.864Z,100634.52
2018-11-13T04:05:38.271Z,100632.91
2018-11-13T04:06:13.192Z,100641.94
2018-11-13T04:06:48.108Z,100640.29
2018-11-13T04:07:23.164Z,100642.28
2018-11-13T04:07:58.094Z,100648.23
2018-11-13T04:08:32.995Z,100654.22
2018-11-13T04:09:10.190Z,100650.06
2018-11-13T04:09:45.222Z,100655.12
2018-11-13T04:10:21.369Z,100655.12
2018-11-13T04:10:56.365Z,100656.81
2018-11-13T04:11:31.388Z,100655.27
2018-11-13T04:12:06.537Z,100659.12
2018-11-13T04:12:42.160Z,100656.57
2018-11-13T04:13:17.117Z,100654.72
2018-11-13T04:13:52.073Z,100653.83
2018-11-13T04:14:27.007Z,100652.92
2018-11-13T04:15:02.029Z,100648.31
2018-11-13T04:15:37.453Z,100654.46
2018-11-13T04:16:12.428Z,100650.22
2018-11-13T04:16:47.435Z,100649.22
2018-11-13T04:17:22.511Z,100648.37
2018-11-13T04:17:57.635Z,100648.92
2018-11-13T04:18:32.563Z,100656.31
2018-11-13T04:19:08.711Z,100649.56
2018-11-13T04:19:43.320Z,100650.80
2018-11-13T04:20:20.020Z,100632.34
2018-11-13T04:20:54.539Z,100648.61
2018-11-13T04:21:29.469Z,100647.91
2018-11-13T04:22:05.339Z,100651.47
2018-11-13T04:22:40.580Z,100650.01
2018-11-13T04:23:15.636Z,100652.77
2018-11-13T04:23:50.570Z,100654.62
2018-11-13T04:24:25.515Z,100655.20
2018-11-13T04:25:00.517Z,100648.88
2018-11-13T04:25:35.484Z,100650.33
2018-11-13T04:26:10.456Z,100650.33
2018-11-13T04:26:45.761Z,100651.97
2018-11-13T04:27:20.707Z,100652.71
2018-11-13T04:27:55.674Z,100647.31
2018-11-13T04:28:30.691Z,100639.23
2018-11-13T04:29:05.662Z,100648.61
2018-11-13T04:29:40.663Z,100648.52
2018-11-13T04:30:16.956Z,100639.79
2018-11-13T04:30:51.974Z,100646.12
2018-11-13T04:31:27.408Z,100640.69
2018-11-13T04:32:02.578Z,100644.08
2018-11-13T04:32:37.818Z,100645.59
2018-11-13T04:33:12.829Z,100648.98
2018-11-13T04:33:47.936Z,100645.08
2018-11-13T04:34:22.920Z,100645.19
2018-11-13T04:34:57.860Z,100641.09
2018-11-13T04:35:32.779Z,100632.48
2018-11-13T04:36:07.217Z,100637.09
2018-11-13T04:36:41.592Z,100634.44
2018-11-13T04:37:16.575Z,100634.44
2018-11-13T04:37:50.919Z,100641.98
2018-11-13T04:38:25.848Z,100640.42
2018-11-13T04:39:00.789Z,100647.47
2018-11-13T04:39:35.720Z,100640.37
2018-11-13T04:40:15.314Z,100648.77
2018-11-13T04:40:49.663Z,100651.07
2018-11-13T04:41:24.683Z,100651.75
2018-11-13T04:41:59.621Z,100654.25
2018-11-13T04:42:34.533Z,100654.80
2018-11-13T04:43:08.880Z,100650.11
2018-11-13T04:43:43.832Z,100646.17
2018-11-13T04:44:18.793Z,100647.16
2018-11-13T04:44:53.772Z,100657.63
2018-11-13T04:45:28.706Z,100651.25
2018-11-13T04:46:03.661Z,100649.69
2018-11-13T04:46:38.101Z,100651.88
2018-11-13T04:47:12.431Z,100647.89
2018-11-13T04:47:48.237Z,100645.38
2018-11-13T04:48:22.847Z,100642.61
2018-11-13T04:48:57.948Z,100643.17
2018-11-13T04:49:32.869Z,100644.66
2018-11-13T04:50:09.476Z,100638.22
2018-11-13T04:50:43.816Z,100634.94
2018-11-13T04:51:18.812Z,100639.52
2018-11-13T04:51:53.300Z,100638.67
2018-11-13T04:52:28.227Z,100641.53
2018-11-13T04:53:03.148Z,100640.13
2018-11-13T04:53:38.169Z,100640.81
2018-11-13T04:54:13.255Z,100640.66
2018-11-13T04:54:48.177Z,100639.98
2018-11-13T04:55:23.106Z,100639.63
2018-11-13T04:55:58.043Z,100640.81
2018-11-13T04:56:32.968Z,100634.89
2018-11-13T04:57:08.305Z,100636.48
2018-11-13T04:57:44.378Z,100642.72
2018-11-13T04:58:19.264Z,100641.31
2018-11-13T04:58:54.205Z,100646.19
2018-11-13T04:59:29.138Z,100653.08
2018-11-13T05:00:06.524Z,100657.13
2018-11-13T05:00:40.868Z,100654.98
2018-11-13T05:01:15.872Z,100655.94
2018-11-13T05:01:50.804Z,100660.56
2018-11-13T05:02:25.797Z,100662.70
2018-11-13T05:03:00.185Z,100654.92
2018-11-13T05:03:35.304Z,100657.28
2018-11-13T05:04:10.191Z,100662.98
2018-11-13T05:04:45.116Z,100665.97
2018-11-13T05:05:21.065Z,100656.15
2018-11-13T05:05:55.965Z,100665.68
2018-11-13T05:06:30.886Z,100664.05
2018-11-13T05:07:06.212Z,100661.28
2018-11-13T05:07:42.085Z,100667.56
2018-11-13T05:08:17.083Z,100668.72
2018-11-13T05:08:52.013Z,100671.11
2018-11-13T05:09:26.399Z,100674.71
2018-11-13T05:10:01.352Z,100668.86
2018-11-13T05:10:36.517Z,100672.30
2018-11-13T05:11:11.437Z,100672.30
2018-11-13T05:11:46.464Z,100669.07
2018-11-13T05:12:21.443Z,100676.98
2018-11-13T05:12:55.797Z,100681.88
2018-11-13T05:13:30.767Z,100678.03
2018-11-13T05:14:05.887Z,100682.23
2018-11-13T05:14:40.875Z,100677.72
2018-11-13T05:15:15.730Z,100678.72
2018-11-13T05:15:50.661Z,100685.16
2018-11-13T05:16:25.673Z,100672.23
2018-11-13T05:17:00.590Z,100678.27
2018-11-13T05:17:35.548Z,100675.44
2018-11-13T05:18:10.536Z,100673.53
2018-11-13T05:18:45.713Z,100669.82
2018-11-13T05:19:20.748Z,100674.16
2018-11-13T05:19:55.887Z,100676.30
2018-11-13T05:20:30.868Z,100682.56
2018-11-13T05:21:06.000Z,100679.02
2018-11-13T05:21:41.064Z,100680.31
2018-11-13T05:22:15.991Z,100682.55
2018-11-13T05:22:50.920Z,100679.23
2018-11-13T05:23:26.118Z,100686.06
2018-11-13T05:24:01.060Z,100672.86
2018-11-13T05:24:35.420Z,100682.78
2018-11-13T05:25:11.960Z,100687.42
2018-11-13T05:25:46.953Z,100678.56
2018-11-13T05:26:21.908Z,100681.92
2018-11-13T05:26:56.381Z,100688.46
2018-11-13T05:27:31.369Z,100689.22
2018-11-13T05:28:06.980Z,100687.40
2018-11-13T05:28:41.911Z,100690.89
2018-11-13T05:29:16.860Z,100691.26
2018-11-13T05:29:51.793Z,100686.23
2018-11-13T05:30:26.220Z,100692.08
2018-11-13T05:31:01.143Z,100688.31
2018-11-13T05:31:36.078Z,100686.72
2018-11-13T05:32:10.416Z,100689.27
2018-11-13T05:32:45.531Z,100692.64
2018-11-13T05:33:20.577Z,100694.12
2018-11-13T05:33:55.509Z,100697.96
2018-11-13T05:34:30.549Z,100700.61
2018-11-13T05:35:06.497Z,100709.97
2018-11-13T05:35:41.478Z,100712.89
2018-11-13T05:36:15.861Z,100710.17
2018-11-13T05:36:50.800Z,100717.23
2018-11-13T05:37:25.893Z,100712.48
2018-11-13T05:38:00.903Z,100715.70
2018-11-13T05:38:35.833Z,100715.88
2018-11-13T05:39:11.585Z,100719.33
2018-11-13T05:39:46.660Z,100724.16
2018-11-13T05:40:22.979Z,100714.06
2018-11-13T05:40:57.912Z,100722.02
2018-11-13T05:41:32.328Z,100710.34
2018-11-13T05:42:07.409Z,100718.80
2018-11-13T05:42:41.765Z,100719.88
2018-11-13T05:43:16.136Z,100729.70
2018-11-13T05:43:50.476Z,100727.28
2018-11-13T05:44:24.862Z,100729.80
2018-11-13T05:44:59.245Z,100731.49
2018-11-13T05:45:33.617Z,100729.75
2018-11-13T05:46:08.584Z,100731.49
2018-11-13T05:46:42.962Z,100733.09
2018-11-13T05:47:18.041Z,100733.14
2018-11-13T05:47:53.578Z,100725.98
2018-11-13T05:48:27.947Z,100727.63
2018-11-13T05:49:02.312Z,100737.58
2018-11-13T05:49:36.652Z,100729.30
2018-11-13T05:50:13.602Z,100737.12
2018-11-13T05:50:48.392Z,100736.14
2018-11-13T05:51:23.354Z,100735.16
2018-11-13T05:51:58.332Z,100733.41
2018-11-13T05:52:32.707Z,100731.75
2018-11-13T05:53:07.704Z,100733.14
2018-11-13T05:53:42.728Z,100734.12
2018-11-13T05:54:17.704Z,100734.29
2018-11-13T05:54:52.702Z,100730.05
2018-11-13T05:55:27.079Z,100728.67
2018-11-13T05:56:01.472Z,100723.94
2018-11-13T05:56:36.485Z,100723.89
2018-11-13T05:57:10.860Z,100731.00
2018-11-13T05:57:46.278Z,100725.80
2018-11-13T05:58:20.887Z,100729.60
2018-11-13T05:58:55.290Z,100726.30
2018-11-13T05:59:29.624Z,100731.94
2018-11-13T06:00:04.257Z,100731.00
2018-11-13T06:00:39.228Z,100731.08
2018-11-13T06:01:13.637Z,100724.14
2018-11-13T06:01:48.047Z,100729.38
2018-11-13T06:02:22.504Z,100726.83
2018-11-13T06:02:57.455Z,100724.59
2018-11-13T06:03:31.836Z,100728.48
2018-11-13T06:04:06.208Z,100712.39
2018-11-13T06:04:40.564Z,100717.80
2018-11-13T06:05:15.192Z,100706.35
2018-11-13T06:05:49.553Z,100710.88
2018-11-13T06:06:24.476Z,100709.97
2018-11-13T06:06:58.928Z,100706.34
2018-11-13T06:07:33.304Z,100699.41
2018-11-13T06:08:07.668Z,100715.37
2018-11-13T06:08:42.169Z,100699.59
2018-11-13T06:09:16.737Z,100697.23
2018-11-13T06:09:51.221Z,100690.95
2018-11-13T06:10:25.585Z,100698.06
2018-11-13T06:11:00.071Z,100702.23
2018-11-13T06:11:35.165Z,100683.58
2018-11-13T06:12:10.105Z,100691.86
2018-11-13T06:12:45.215Z,100696.52
2018-11-13T06:13:20.329Z,100691.75
2018-11-13T06:13:55.262Z,100693.85
2018-11-13T06:14:29.800Z,100697.89
2018-11-13T06:15:05.414Z,100701.06
2018-11-13T06:15:39.823Z,100703.71
2018-11-13T06:16:14.946Z,100700.55
2018-11-13T06:16:49.337Z,100697.95
2018-11-13T06:17:23.679Z,100705.16
2018-11-13T06:17:58.648Z,100706.12
2018-11-13T06:18:33.750Z,100706.00
2018-11-13T06:19:08.283Z,100705.95
2018-11-13T06:19:43.376Z,100706.75
2018-11-13T06:20:18.404Z,100703.81
2018-11-13T06:20:53.362Z,100712.48
2018-11-13T06:21:27.972Z,100714.41
2018-11-13T06:22:02.920Z,100708.59
2018-11-13T06:22:38.009Z,100710.25
2018-11-13T06:23:12.450Z,100718.52
2018-11-13T06:23:47.523Z,100716.73
2018-11-13T06:24:22.487Z,100723.77
2018-11-13T06:24:57.491Z,100722.05
2018-11-13T06:25:31.915Z,100728.37
2018-11-13T06:26:06.537Z,100726.39
2018-11-13T06:26:41.496Z,100721.02
2018-11-13T06:27:16.104Z,100730.06
2018-11-13T06:27:50.500Z,100728.46
2018-11-13T06:28:24.884Z,100733.16
2018-11-13T06:28:59.208Z,100729.76
2018-11-13T06:29:33.634Z,100741.42
2018-11-13T06:30:14.628Z,100745.48
2018-11-13T06:30:49.087Z,100747.86
2018-11-13T06:31:23.458Z,100746.52
2018-11-13T06:31:57.800Z,100747.67
2018-11-13T06:32:32.210Z,100750.22
2018-11-13T06:33:07.055Z,100750.95
2018-11-13T06:33:41.400Z,100755.81
2018-11-13T06:34:15.799Z,100755.81
2018-11-13T06:34:50.209Z,100754.80
2018-11-13T06:35:24.617Z,100764.31
2018-11-13T06:35:58.981Z,100761.95
2018-11-13T06:36:33.438Z,100763.29
2018-11-13T06:37:08.187Z,100749.52
2018-11-13T06:37:42.574Z,100765.34
2018-11-13T06:38:17.282Z,100761.95
2018-11-13T06:38:52.279Z,100764.31
2018-11-13T06:39:26.798Z,100773.13
2018-11-13T06:40:01.208Z,100772.64
2018-11-13T06:40:35.552Z,100778.00